sensor_id;sensor_type;location;lat;lon;timestamp;temperature;humidity
3208;DHT22;1616;52.394;9.756;2023-07-13T00:00:33;21.60;1.00
3208;DHT22;1616;52.394;9.756;2023-07-13T00:02:59;21.60;1.00
3208;DHT22;1616;52.394;9.756;2023-07-13T00:05:25;21.50;1.00
3208;DHT22;1616;52.394;9.756;2023-07-13T00:07:52;21.60;1.00
3208;DHT22;1616;52.394;9.756;2023-07-13T00:10:18;21.50;1.00
3208;DHT22;1616;52.394;9.756;2023-07-13T00:12:44;21.40;1.00
3208;DHT22;1616;52.394;9.756;2023-07-13T00:15:18;21.40;1.00
3208;DHT22;1616;52.394;9.756;2023-07-13T00:17:52;21.30;1.00
3208;DHT22;1616;52.394;9.756;2023-07-13T00:20:19;21.30;1.00
3208;DHT22;1616;52.394;9.756;2023-07-13T00:22:47;21.20;1.00
3208;DHT22;1616;52.394;9.756;2023-07-13T00:25:13;21.20;1.00
3208;DHT22;1616;52.394;9.756;2023-07-13T00:27:39;21.10;1.00
3208;DHT22;1616;52.394;9.756;2023-07-13T00:30:05;21.00;1.00
3208;DHT22;1616;52.394;9.756;2023-07-13T00:32:31;21.00;1.00
3208;DHT22;1616;52.394;9.756;2023-07-13T00:34:57;21.00;1.00
3208;DHT22;1616;52.394;9.756;2023-07-13T00:37:24;20.80;1.00
3208;DHT22;1616;52.394;9.756;2023-07-13T00:39:49;20.80;1.00
3208;DHT22;1616;52.394;9.756;2023-07-13T00:42:15;20.70;1.00
3208;DHT22;1616;52.394;9.756;2023-07-13T00:44:41;20.70;1.00
3208;DHT22;1616;52.394;9.756;2023-07-13T00:47:06;20.50;1.00
3208;DHT22;1616;52.394;9.756;2023-07-13T00:49:33;20.30;1.00
3208;DHT22;1616;52.394;9.756;2023-07-13T00:52:08;20.30;1.00
3208;DHT22;1616;52.394;9.756;2023-07-13T00:54:40;20.10;1.00
3208;DHT22;1616;52.394;9.756;2023-07-13T00:57:11;20.00;1.00
3208;DHT22;1616;52.394;9.756;2023-07-13T00:59:40;19.90;1.00
3208;DHT22;1616;52.394;9.756;2023-07-13T01:02:07;19.80;1.00
3208;DHT22;1616;52.394;9.756;2023-07-13T01:04:33;19.70;1.00
3208;DHT22;1616;52.394;9.756;2023-07-13T01:06:59;19.60;1.00
3208;DHT22;1616;52.394;9.756;2023-07-13T01:09:26;19.60;1.00
3208;DHT22;1616;52.394;9.756;2023-07-13T01:11:52;19.50;1.00
3208;DHT22;1616;52.394;9.756;2023-07-13T01:14:18;19.50;1.00
3208;DHT22;1616;52.394;9.756;2023-07-13T01:16:45;19.50;1.00
3208;DHT22;1616;52.394;9.756;2023-07-13T01:21:55;19.40;1.00
3208;DHT22;1616;52.394;9.756;2023-07-13T01:24:21;19.40;1.00
3208;DHT22;1616;52.394;9.756;2023-07-13T01:26:47;19.40;1.00
3208;DHT22;1616;52.394;9.756;2023-07-13T01:29:12;19.40;1.00
3208;DHT22;1616;52.394;9.756;2023-07-13T01:31:38;19.30;1.00
3208;DHT22;1616;52.394;9.756;2023-07-13T01:34:03;19.30;1.00
3208;DHT22;1616;52.394;9.756;2023-07-13T01:36:30;19.40;1.00
3208;DHT22;1616;52.394;9.756;2023-07-13T01:38:56;19.40;1.00
3208;DHT22;1616;52.394;9.756;2023-07-13T01:41:21;19.40;1.00
3208;DHT22;1616;52.394;9.756;2023-07-13T01:43:47;19.40;1.00
3208;DHT22;1616;52.394;9.756;2023-07-13T01:46:13;19.40;1.00
3208;DHT22;1616;52.394;9.756;2023-07-13T01:48:38;19.40;1.00
3208;DHT22;1616;52.394;9.756;2023-07-13T01:51:04;19.60;1.00
3208;DHT22;1616;52.394;9.756;2023-07-13T01:53:29;19.70;1.00
3208;DHT22;1616;52.394;9.756;2023-07-13T01:55:55;19.80;1.00
3208;DHT22;1616;52.394;9.756;2023-07-13T01:58:20;19.80;1.00
3208;DHT22;1616;52.394;9.756;2023-07-13T02:00:48;19.80;1.00
3208;DHT22;1616;52.394;9.756;2023-07-13T02:03:15;19.90;1.00
3208;DHT22;1616;52.394;9.756;2023-07-13T02:05:44;19.90;1.00
3208;DHT22;1616;52.394;9.756;2023-07-13T02:08:10;20.00;1.00
3208;DHT22;1616;52.394;9.756;2023-07-13T02:10:37;19.90;1.00
3208;DHT22;1616;52.394;9.756;2023-07-13T02:13:05;19.80;1.00
3208;DHT22;1616;52.394;9.756;2023-07-13T02:15:31;19.90;1.00
3208;DHT22;1616;52.394;9.756;2023-07-13T02:17:57;19.80;1.00
3208;DHT22;1616;52.394;9.756;2023-07-13T02:20:25;19.80;1.00
3208;DHT22;1616;52.394;9.756;2023-07-13T02:22:51;19.80;1.00
3208;DHT22;1616;52.394;9.756;2023-07-13T02:25:17;19.80;1.00
3208;DHT22;1616;52.394;9.756;2023-07-13T02:27:43;19.80;1.00
3208;DHT22;1616;52.394;9.756;2023-07-13T02:30:09;19.80;1.00
3208;DHT22;1616;52.394;9.756;2023-07-13T02:32:36;19.80;1.00
3208;DHT22;1616;52.394;9.756;2023-07-13T02:35:01;19.70;1.00
3208;DHT22;1616;52.394;9.756;2023-07-13T02:37:27;19.70;1.00
3208;DHT22;1616;52.394;9.756;2023-07-13T02:39:53;19.70;1.00
3208;DHT22;1616;52.394;9.756;2023-07-13T02:42:19;19.60;1.00
3208;DHT22;1616;52.394;9.756;2023-07-13T02:44:45;19.70;1.00
3208;DHT22;1616;52.394;9.756;2023-07-13T02:47:11;19.70;1.00
3208;DHT22;1616;52.394;9.756;2023-07-13T02:49:38;19.70;1.00
3208;DHT22;1616;52.394;9.756;2023-07-13T02:52:05;19.70;1.00
3208;DHT22;1616;52.394;9.756;2023-07-13T02:54:31;19.60;1.00
3208;DHT22;1616;52.394;9.756;2023-07-13T02:56:56;19.60;1.00
3208;DHT22;1616;52.394;9.756;2023-07-13T02:59:22;19.60;1.00
3208;DHT22;1616;52.394;9.756;2023-07-13T03:01:48;19.60;1.00
3208;DHT22;1616;52.394;9.756;2023-07-13T03:04:13;19.70;1.00
3208;DHT22;1616;52.394;9.756;2023-07-13T03:06:39;19.70;1.00
3208;DHT22;1616;52.394;9.756;2023-07-13T03:09:04;19.80;1.00
3208;DHT22;1616;52.394;9.756;2023-07-13T03:11:31;19.80;1.00
3208;DHT22;1616;52.394;9.756;2023-07-13T03:13:57;19.80;1.00
3208;DHT22;1616;52.394;9.756;2023-07-13T03:16:23;19.80;1.00
3208;DHT22;1616;52.394;9.756;2023-07-13T03:18:48;19.80;1.00
3208;DHT22;1616;52.394;9.756;2023-07-13T03:21:14;19.70;1.00
3208;DHT22;1616;52.394;9.756;2023-07-13T03:23:40;19.80;1.00
3208;DHT22;1616;52.394;9.756;2023-07-13T03:26:09;19.80;1.00
3208;DHT22;1616;52.394;9.756;2023-07-13T03:28:35;19.70;1.00
3208;DHT22;1616;52.394;9.756;2023-07-13T03:31:03;19.60;1.00
3208;DHT22;1616;52.394;9.756;2023-07-13T03:33:29;19.70;1.00
3208;DHT22;1616;52.394;9.756;2023-07-13T03:35:55;19.80;1.00
3208;DHT22;1616;52.394;9.756;2023-07-13T03:38:21;19.80;1.00
3208;DHT22;1616;52.394;9.756;2023-07-13T03:40:47;19.90;1.00
3208;DHT22;1616;52.394;9.756;2023-07-13T03:43:12;19.90;1.00
3208;DHT22;1616;52.394;9.756;2023-07-13T03:45:38;20.00;1.00
3208;DHT22;1616;52.394;9.756;2023-07-13T03:48:04;19.90;1.00
3208;DHT22;1616;52.394;9.756;2023-07-13T03:50:31;19.90;1.00
3208;DHT22;1616;52.394;9.756;2023-07-13T03:52:58;20.00;1.00
3208;DHT22;1616;52.394;9.756;2023-07-13T03:55:23;20.00;1.00
3208;DHT22;1616;52.394;9.756;2023-07-13T03:57:57;20.00;1.00
3208;DHT22;1616;52.394;9.756;2023-07-13T04:00:23;20.20;1.00
3208;DHT22;1616;52.394;9.756;2023-07-13T04:02:49;20.20;1.00
3208;DHT22;1616;52.394;9.756;2023-07-13T04:05:15;20.30;1.00
3208;DHT22;1616;52.394;9.756;2023-07-13T04:07:41;20.50;1.00
3208;DHT22;1616;52.394;9.756;2023-07-13T04:10:07;20.60;1.00
3208;DHT22;1616;52.394;9.756;2023-07-13T04:12:33;20.70;1.00
3208;DHT22;1616;52.394;9.756;2023-07-13T04:14:59;20.90;1.00
3208;DHT22;1616;52.394;9.756;2023-07-13T04:17:24;21.10;1.00
3208;DHT22;1616;52.394;9.756;2023-07-13T04:19:50;21.30;1.00
3208;DHT22;1616;52.394;9.756;2023-07-13T04:22:16;21.40;1.00
3208;DHT22;1616;52.394;9.756;2023-07-13T04:24:41;21.40;1.00
3208;DHT22;1616;52.394;9.756;2023-07-13T04:27:07;21.40;1.00
3208;DHT22;1616;52.394;9.756;2023-07-13T04:29:33;21.30;1.00
3208;DHT22;1616;52.394;9.756;2023-07-13T04:31:58;21.20;1.00
3208;DHT22;1616;52.394;9.756;2023-07-13T04:34:24;21.00;1.00
3208;DHT22;1616;52.394;9.756;2023-07-13T04:36:50;20.80;1.00
3208;DHT22;1616;52.394;9.756;2023-07-13T04:39:16;20.80;1.00
3208;DHT22;1616;52.394;9.756;2023-07-13T04:41:42;20.60;1.00
3208;DHT22;1616;52.394;9.756;2023-07-13T04:44:07;20.50;1.00
3208;DHT22;1616;52.394;9.756;2023-07-13T04:46:33;20.40;1.00
3208;DHT22;1616;52.394;9.756;2023-07-13T04:48:59;20.50;1.00
3208;DHT22;1616;52.394;9.756;2023-07-13T04:51:26;20.80;1.00
3208;DHT22;1616;52.394;9.756;2023-07-13T04:53:51;21.30;1.00
3208;DHT22;1616;52.394;9.756;2023-07-13T04:56:17;21.80;1.00
3208;DHT22;1616;52.394;9.756;2023-07-13T04:58:45;22.40;1.00
3208;DHT22;1616;52.394;9.756;2023-07-13T05:01:11;23.20;1.00
3208;DHT22;1616;52.394;9.756;2023-07-13T05:03:36;23.70;1.00
3208;DHT22;1616;52.394;9.756;2023-07-13T05:06:06;24.40;1.00
3208;DHT22;1616;52.394;9.756;2023-07-13T05:08:32;25.00;1.00
3208;DHT22;1616;52.394;9.756;2023-07-13T05:11:02;25.50;1.00
3208;DHT22;1616;52.394;9.756;2023-07-13T05:13:29;26.10;1.00
3208;DHT22;1616;52.394;9.756;2023-07-13T05:16:12;26.60;1.00
3208;DHT22;1616;52.394;9.756;2023-07-13T05:18:38;26.90;1.00
3208;DHT22;1616;52.394;9.756;2023-07-13T05:21:08;27.30;1.00
3208;DHT22;1616;52.394;9.756;2023-07-13T05:23:35;27.60;1.00
3208;DHT22;1616;52.394;9.756;2023-07-13T05:26:02;27.80;1.00
3208;DHT22;1616;52.394;9.756;2023-07-13T05:28:30;28.00;1.00
3208;DHT22;1616;52.394;9.756;2023-07-13T05:30:55;28.30;1.00
3208;DHT22;1616;52.394;9.756;2023-07-13T05:33:22;28.30;1.00
3208;DHT22;1616;52.394;9.756;2023-07-13T05:35:48;28.20;1.00
3208;DHT22;1616;52.394;9.756;2023-07-13T05:38:14;27.90;1.00
3208;DHT22;1616;52.394;9.756;2023-07-13T05:40:43;27.60;1.00
3208;DHT22;1616;52.394;9.756;2023-07-13T05:43:09;27.20;1.00
3208;DHT22;1616;52.394;9.756;2023-07-13T05:45:35;27.20;1.00
3208;DHT22;1616;52.394;9.756;2023-07-13T05:48:00;27.10;1.00
3208;DHT22;1616;52.394;9.756;2023-07-13T05:50:26;27.10;1.00
3208;DHT22;1616;52.394;9.756;2023-07-13T05:52:52;27.50;1.00
3208;DHT22;1616;52.394;9.756;2023-07-13T05:55:19;27.90;1.00
3208;DHT22;1616;52.394;9.756;2023-07-13T05:57:45;28.30;1.00
3208;DHT22;1616;52.394;9.756;2023-07-13T06:00:11;28.90;1.00
3208;DHT22;1616;52.394;9.756;2023-07-13T06:02:36;29.50;1.00
3208;DHT22;1616;52.394;9.756;2023-07-13T06:05:02;30.00;1.00
3208;DHT22;1616;52.394;9.756;2023-07-13T06:07:28;30.60;1.00
3208;DHT22;1616;52.394;9.756;2023-07-13T06:09:53;31.00;1.00
3208;DHT22;1616;52.394;9.756;2023-07-13T06:12:19;31.20;1.00
3208;DHT22;1616;52.394;9.756;2023-07-13T06:14:44;31.50;1.00
3208;DHT22;1616;52.394;9.756;2023-07-13T06:17:10;32.00;1.00
3208;DHT22;1616;52.394;9.756;2023-07-13T06:19:35;32.30;1.00
3208;DHT22;1616;52.394;9.756;2023-07-13T06:22:01;32.50;1.00
3208;DHT22;1616;52.394;9.756;2023-07-13T06:24:27;32.50;1.00
3208;DHT22;1616;52.394;9.756;2023-07-13T06:26:52;32.20;1.00
3208;DHT22;1616;52.394;9.756;2023-07-13T06:29:18;32.00;1.00
3208;DHT22;1616;52.394;9.756;2023-07-13T06:31:44;32.00;1.00
3208;DHT22;1616;52.394;9.756;2023-07-13T06:34:09;32.10;1.00
3208;DHT22;1616;52.394;9.756;2023-07-13T06:36:35;32.00;1.00
3208;DHT22;1616;52.394;9.756;2023-07-13T06:39:02;31.80;1.00
3208;DHT22;1616;52.394;9.756;2023-07-13T06:41:28;31.60;1.00
3208;DHT22;1616;52.394;9.756;2023-07-13T06:43:53;31.20;1.00
3208;DHT22;1616;52.394;9.756;2023-07-13T06:46:22;30.70;1.00
3208;DHT22;1616;52.394;9.756;2023-07-13T06:48:48;30.10;1.00
3208;DHT22;1616;52.394;9.756;2023-07-13T06:51:14;29.50;1.00
3208;DHT22;1616;52.394;9.756;2023-07-13T06:53:40;29.10;1.00
3208;DHT22;1616;52.394;9.756;2023-07-13T06:56:06;28.60;1.00
3208;DHT22;1616;52.394;9.756;2023-07-13T06:58:33;28.20;1.00
3208;DHT22;1616;52.394;9.756;2023-07-13T07:00:59;28.10;1.00
3208;DHT22;1616;52.394;9.756;2023-07-13T07:03:25;28.10;1.00
3208;DHT22;1616;52.394;9.756;2023-07-13T07:05:51;28.20;1.00
3208;DHT22;1616;52.394;9.756;2023-07-13T07:08:16;28.50;1.00
3208;DHT22;1616;52.394;9.756;2023-07-13T07:10:42;28.90;1.00
3208;DHT22;1616;52.394;9.756;2023-07-13T07:13:07;29.10;1.00
3208;DHT22;1616;52.394;9.756;2023-07-13T07:15:34;29.20;1.00
3208;DHT22;1616;52.394;9.756;2023-07-13T07:18:00;29.50;1.00
3208;DHT22;1616;52.394;9.756;2023-07-13T07:20:26;29.70;1.00
3208;DHT22;1616;52.394;9.756;2023-07-13T07:22:52;29.90;1.00
3208;DHT22;1616;52.394;9.756;2023-07-13T07:25:18;29.80;1.00
3208;DHT22;1616;52.394;9.756;2023-07-13T07:27:44;29.50;1.00
3208;DHT22;1616;52.394;9.756;2023-07-13T07:30:10;29.20;1.00
3208;DHT22;1616;52.394;9.756;2023-07-13T07:32:36;28.80;1.00
3208;DHT22;1616;52.394;9.756;2023-07-13T07:35:02;28.50;1.00
3208;DHT22;1616;52.394;9.756;2023-07-13T07:37:28;28.20;1.00
3208;DHT22;1616;52.394;9.756;2023-07-13T07:39:54;27.90;1.00
3208;DHT22;1616;52.394;9.756;2023-07-13T07:42:20;27.60;1.00
3208;DHT22;1616;52.394;9.756;2023-07-13T07:44:45;27.30;1.00
3208;DHT22;1616;52.394;9.756;2023-07-13T07:47:11;26.90;1.00
3208;DHT22;1616;52.394;9.756;2023-07-13T07:49:37;26.80;1.00
3208;DHT22;1616;52.394;9.756;2023-07-13T07:52:03;26.70;1.00
3208;DHT22;1616;52.394;9.756;2023-07-13T07:54:29;26.70;1.00
3208;DHT22;1616;52.394;9.756;2023-07-13T07:56:55;26.70;1.00
3208;DHT22;1616;52.394;9.756;2023-07-13T07:59:20;26.70;1.00
3208;DHT22;1616;52.394;9.756;2023-07-13T08:01:46;26.60;1.00
3208;DHT22;1616;52.394;9.756;2023-07-13T08:04:13;26.60;1.00
3208;DHT22;1616;52.394;9.756;2023-07-13T08:06:39;26.40;1.00
3208;DHT22;1616;52.394;9.756;2023-07-13T08:09:04;26.50;1.00
3208;DHT22;1616;52.394;9.756;2023-07-13T08:11:30;26.40;1.00
3208;DHT22;1616;52.394;9.756;2023-07-13T08:13:56;26.20;1.00
3208;DHT22;1616;52.394;9.756;2023-07-13T08:16:22;26.10;1.00
3208;DHT22;1616;52.394;9.756;2023-07-13T08:18:48;26.00;1.00
3208;DHT22;1616;52.394;9.756;2023-07-13T08:21:14;25.90;1.00
3208;DHT22;1616;52.394;9.756;2023-07-13T08:23:40;26.20;1.00
3208;DHT22;1616;52.394;9.756;2023-07-13T08:26:06;26.90;1.00
3208;DHT22;1616;52.394;9.756;2023-07-13T08:28:33;27.30;1.00
3208;DHT22;1616;52.394;9.756;2023-07-13T08:31:06;27.70;1.00
3208;DHT22;1616;52.394;9.756;2023-07-13T08:33:34;27.80;1.00
3208;DHT22;1616;52.394;9.756;2023-07-13T08:36:01;27.70;1.00
3208;DHT22;1616;52.394;9.756;2023-07-13T08:38:26;27.60;1.00
3208;DHT22;1616;52.394;9.756;2023-07-13T08:40:54;27.50;1.00
3208;DHT22;1616;52.394;9.756;2023-07-13T08:43:28;27.40;1.00
3208;DHT22;1616;52.394;9.756;2023-07-13T08:46:28;27.10;1.00
3208;DHT22;1616;52.394;9.756;2023-07-13T08:49:08;26.90;1.00
3208;DHT22;1616;52.394;9.756;2023-07-13T08:51:40;27.00;1.00
3208;DHT22;1616;52.394;9.756;2023-07-13T08:54:37;27.40;1.00
3208;DHT22;1616;52.394;9.756;2023-07-13T08:57:17;27.80;1.00
3208;DHT22;1616;52.394;9.756;2023-07-13T08:59:45;28.10;1.00
3208;DHT22;1616;52.394;9.756;2023-07-13T09:02:25;28.10;1.00
3208;DHT22;1616;52.394;9.756;2023-07-13T09:05:18;28.30;1.00
3208;DHT22;1616;52.394;9.756;2023-07-13T09:08:16;28.90;1.00
3208;DHT22;1616;52.394;9.756;2023-07-13T09:10:52;29.20;1.00
3208;DHT22;1616;52.394;9.756;2023-07-13T09:16:04;29.60;1.00
3208;DHT22;1616;52.394;9.756;2023-07-13T09:18:36;29.50;1.00
3208;DHT22;1616;52.394;9.756;2023-07-13T09:21:22;29.30;1.00
3208;DHT22;1616;52.394;9.756;2023-07-13T09:23:53;28.90;1.00
3208;DHT22;1616;52.394;9.756;2023-07-13T09:26:21;28.80;1.00
3208;DHT22;1616;52.394;9.756;2023-07-13T09:28:57;28.60;1.00
3208;DHT22;1616;52.394;9.756;2023-07-13T09:31:38;28.50;1.00
3208;DHT22;1616;52.394;9.756;2023-07-13T09:34:09;28.80;1.00
3208;DHT22;1616;52.394;9.756;2023-07-13T09:36:35;29.40;1.00
3208;DHT22;1616;52.394;9.756;2023-07-13T09:39:12;30.20;1.00
3208;DHT22;1616;52.394;9.756;2023-07-13T09:44:14;31.90;1.00
3208;DHT22;1616;52.394;9.756;2023-07-13T09:46:54;32.20;1.00
3208;DHT22;1616;52.394;9.756;2023-07-13T09:49:33;32.00;1.00
3208;DHT22;1616;52.394;9.756;2023-07-13T09:52:05;31.60;1.00
3208;DHT22;1616;52.394;9.756;2023-07-13T09:54:36;31.10;1.00
3208;DHT22;1616;52.394;9.756;2023-07-13T09:57:08;30.50;1.00
3208;DHT22;1616;52.394;9.756;2023-07-13T09:59:41;29.90;1.00
3208;DHT22;1616;52.394;9.756;2023-07-13T10:02:37;29.50;1.00
3208;DHT22;1616;52.394;9.756;2023-07-13T10:05:06;29.40;1.00
3208;DHT22;1616;52.394;9.756;2023-07-13T10:07:38;29.60;1.00
3208;DHT22;1616;52.394;9.756;2023-07-13T10:10:17;30.10;1.00
3208;DHT22;1616;52.394;9.756;2023-07-13T10:12:44;30.90;1.00
3208;DHT22;1616;52.394;9.756;2023-07-13T10:15:16;31.60;1.00
3208;DHT22;1616;52.394;9.756;2023-07-13T10:17:43;31.70;1.00
3208;DHT22;1616;52.394;9.756;2023-07-13T10:20:09;31.60;1.00
3208;DHT22;1616;52.394;9.756;2023-07-13T10:22:58;31.90;1.00
3208;DHT22;1616;52.394;9.756;2023-07-13T10:25:27;32.50;1.00
3208;DHT22;1616;52.394;9.756;2023-07-13T10:27:59;33.20;1.00
3208;DHT22;1616;52.394;9.756;2023-07-13T10:30:31;33.60;1.00
3208;DHT22;1616;52.394;9.756;2023-07-13T10:33:10;33.60;1.00
3208;DHT22;1616;52.394;9.756;2023-07-13T10:35:37;33.20;1.00
3208;DHT22;1616;52.394;9.756;2023-07-13T10:38:11;32.90;1.00
3208;DHT22;1616;52.394;9.756;2023-07-13T10:40:40;32.90;1.00
3208;DHT22;1616;52.394;9.756;2023-07-13T10:43:26;33.10;1.00
3208;DHT22;1616;52.394;9.756;2023-07-13T10:45:53;33.50;1.00
3208;DHT22;1616;52.394;9.756;2023-07-13T10:48:21;33.90;1.00
3208;DHT22;1616;52.394;9.756;2023-07-13T10:50:50;33.80;1.00
3208;DHT22;1616;52.394;9.756;2023-07-13T10:53:28;33.30;1.00
3208;DHT22;1616;52.394;9.756;2023-07-13T10:55:55;32.90;1.00
3208;DHT22;1616;52.394;9.756;2023-07-13T11:01:04;31.60;1.00
3208;DHT22;1616;52.394;9.756;2023-07-13T11:03:56;30.90;1.00
3208;DHT22;1616;52.394;9.756;2023-07-13T11:11:45;31.40;1.00
3208;DHT22;1616;52.394;9.756;2023-07-13T11:14:27;32.20;1.00
3208;DHT22;1616;52.394;9.756;2023-07-13T11:16:53;32.70;1.00
3208;DHT22;1616;52.394;9.756;2023-07-13T11:27:42;30.50;1.00
3208;DHT22;1616;52.394;9.756;2023-07-13T11:41:29;30.80;1.00
3208;DHT22;1616;52.394;9.756;2023-07-13T11:44:06;31.70;1.00
3208;DHT22;1616;52.394;9.756;2023-07-13T11:46:32;32.60;1.00
3208;DHT22;1616;52.394;9.756;2023-07-13T11:48:57;33.60;1.00
3208;DHT22;1616;52.394;9.756;2023-07-13T11:51:27;34.50;1.00
3208;DHT22;1616;52.394;9.756;2023-07-13T11:53:55;35.30;1.00
3208;DHT22;1616;52.394;9.756;2023-07-13T11:56:23;35.80;1.00
3208;DHT22;1616;52.394;9.756;2023-07-13T11:58:51;36.00;1.00
3208;DHT22;1616;52.394;9.756;2023-07-13T12:01:22;36.20;1.00
3208;DHT22;1616;52.394;9.756;2023-07-13T12:03:49;36.30;1.00
3208;DHT22;1616;52.394;9.756;2023-07-13T12:06:33;36.20;1.00
3208;DHT22;1616;52.394;9.756;2023-07-13T12:09:08;35.90;1.00
3208;DHT22;1616;52.394;9.756;2023-07-13T12:11:40;35.70;1.00
3208;DHT22;1616;52.394;9.756;2023-07-13T12:14:15;35.60;1.00
3208;DHT22;1616;52.394;9.756;2023-07-13T12:16:42;35.70;1.00
3208;DHT22;1616;52.394;9.756;2023-07-13T12:19:25;35.90;1.00
3208;DHT22;1616;52.394;9.756;2023-07-13T12:21:54;36.20;1.00
3208;DHT22;1616;52.394;9.756;2023-07-13T12:24:22;36.20;1.00
3208;DHT22;1616;52.394;9.756;2023-07-13T12:27:19;36.20;1.00
3208;DHT22;1616;52.394;9.756;2023-07-13T12:30:15;36.30;1.00
3208;DHT22;1616;52.394;9.756;2023-07-13T12:33:05;36.40;1.00
3208;DHT22;1616;52.394;9.756;2023-07-13T12:35:45;36.20;1.00
3208;DHT22;1616;52.394;9.756;2023-07-13T12:38:12;35.30;1.00
3208;DHT22;1616;52.394;9.756;2023-07-13T12:40:38;34.30;1.00
3208;DHT22;1616;52.394;9.756;2023-07-13T12:43:11;33.40;1.00
3208;DHT22;1616;52.394;9.756;2023-07-13T12:45:38;32.70;1.00
3208;DHT22;1616;52.394;9.756;2023-07-13T12:48:12;32.20;1.00
3208;DHT22;1616;52.394;9.756;2023-07-13T12:50:43;32.10;1.00
3208;DHT22;1616;52.394;9.756;2023-07-13T12:53:22;32.30;1.00
3208;DHT22;1616;52.394;9.756;2023-07-13T12:55:49;32.60;1.00
3208;DHT22;1616;52.394;9.756;2023-07-13T12:58:39;32.30;1.00
3208;DHT22;1616;52.394;9.756;2023-07-13T13:01:07;31.70;1.00
3208;DHT22;1616;52.394;9.756;2023-07-13T13:03:39;31.20;1.00
3208;DHT22;1616;52.394;9.756;2023-07-13T13:08:41;30.00;1.00
3208;DHT22;1616;52.394;9.756;2023-07-13T13:11:08;29.40;1.00
3208;DHT22;1616;52.394;9.756;2023-07-13T13:13:35;28.60;1.00
3208;DHT22;1616;52.394;9.756;2023-07-13T13:16:26;26.90;1.00
3208;DHT22;1616;52.394;9.756;2023-07-13T13:18:57;25.30;1.00
3208;DHT22;1616;52.394;9.756;2023-07-13T13:21:24;24.30;1.00
3208;DHT22;1616;52.394;9.756;2023-07-13T13:23:51;23.80;1.00
3208;DHT22;1616;52.394;9.756;2023-07-13T13:26:19;23.60;1.00
3208;DHT22;1616;52.394;9.756;2023-07-13T13:28:45;23.70;1.00
3208;DHT22;1616;52.394;9.756;2023-07-13T13:31:13;23.80;1.00
3208;DHT22;1616;52.394;9.756;2023-07-13T13:33:42;23.80;1.00
3208;DHT22;1616;52.394;9.756;2023-07-13T13:36:19;23.80;1.00
3208;DHT22;1616;52.394;9.756;2023-07-13T13:38:45;23.80;1.00
3208;DHT22;1616;52.394;9.756;2023-07-13T13:41:12;23.80;1.00
3208;DHT22;1616;52.394;9.756;2023-07-13T13:43:40;23.80;1.00
3208;DHT22;1616;52.394;9.756;2023-07-13T13:46:14;23.60;1.00
3208;DHT22;1616;52.394;9.756;2023-07-13T13:48:41;23.30;1.00
3208;DHT22;1616;52.394;9.756;2023-07-13T13:51:17;22.60;1.00
3208;DHT22;1616;52.394;9.756;2023-07-13T13:53:45;22.00;1.00
3208;DHT22;1616;52.394;9.756;2023-07-13T13:56:11;21.40;1.00
3208;DHT22;1616;52.394;9.756;2023-07-13T13:58:37;21.00;1.00
3208;DHT22;1616;52.394;9.756;2023-07-13T14:01:03;20.80;1.00
3208;DHT22;1616;52.394;9.756;2023-07-13T14:03:31;20.80;1.00
3208;DHT22;1616;52.394;9.756;2023-07-13T14:05:57;20.90;1.00
3208;DHT22;1616;52.394;9.756;2023-07-13T14:08:22;20.90;1.00
3208;DHT22;1616;52.394;9.756;2023-07-13T14:10:53;21.00;1.00
3208;DHT22;1616;52.394;9.756;2023-07-13T14:13:32;21.10;1.00
3208;DHT22;1616;52.394;9.756;2023-07-13T14:16:01;21.30;1.00
3208;DHT22;1616;52.394;9.756;2023-07-13T14:18:27;21.60;1.00
3208;DHT22;1616;52.394;9.756;2023-07-13T14:20:53;21.80;1.00
3208;DHT22;1616;52.394;9.756;2023-07-13T14:23:19;22.10;1.00
3208;DHT22;1616;52.394;9.756;2023-07-13T14:25:46;22.40;1.00
3208;DHT22;1616;52.394;9.756;2023-07-13T14:28:24;22.70;1.00
3208;DHT22;1616;52.394;9.756;2023-07-13T14:30:50;23.00;1.00
3208;DHT22;1616;52.394;9.756;2023-07-13T14:33:16;23.20;1.00
3208;DHT22;1616;52.394;9.756;2023-07-13T14:35:42;23.40;1.00
3208;DHT22;1616;52.394;9.756;2023-07-13T14:38:18;23.60;1.00
3208;DHT22;1616;52.394;9.756;2023-07-13T14:40:46;23.70;1.00
3208;DHT22;1616;52.394;9.756;2023-07-13T14:43:13;23.80;1.00
3208;DHT22;1616;52.394;9.756;2023-07-13T14:45:41;23.80;1.00
3208;DHT22;1616;52.394;9.756;2023-07-13T14:48:20;23.60;1.00
3208;DHT22;1616;52.394;9.756;2023-07-13T14:50:47;23.40;1.00
3208;DHT22;1616;52.394;9.756;2023-07-13T14:53:13;23.20;1.00
3208;DHT22;1616;52.394;9.756;2023-07-13T14:55:39;23.10;1.00
3208;DHT22;1616;52.394;9.756;2023-07-13T14:58:05;23.10;1.00
3208;DHT22;1616;52.394;9.756;2023-07-13T15:00:31;23.00;1.00
3208;DHT22;1616;52.394;9.756;2023-07-13T15:02:58;23.10;1.00
3208;DHT22;1616;52.394;9.756;2023-07-13T15:05:27;22.90;1.00
3208;DHT22;1616;52.394;9.756;2023-07-13T15:07:57;22.70;1.00
3208;DHT22;1616;52.394;9.756;2023-07-13T15:10:27;22.20;1.00
3208;DHT22;1616;52.394;9.756;2023-07-13T15:12:58;21.90;1.00
3208;DHT22;1616;52.394;9.756;2023-07-13T15:15:25;21.80;1.00
3208;DHT22;1616;52.394;9.756;2023-07-13T15:17:50;21.80;1.00
3208;DHT22;1616;52.394;9.756;2023-07-13T15:20:18;21.80;1.00
3208;DHT22;1616;52.394;9.756;2023-07-13T15:22:45;21.80;1.00
3208;DHT22;1616;52.394;9.756;2023-07-13T15:25:18;21.80;1.00
3208;DHT22;1616;52.394;9.756;2023-07-13T15:27:44;21.70;1.00
3208;DHT22;1616;52.394;9.756;2023-07-13T15:30:11;21.80;1.00
3208;DHT22;1616;52.394;9.756;2023-07-13T15:32:37;21.80;1.00
3208;DHT22;1616;52.394;9.756;2023-07-13T15:35:03;21.80;1.00
3208;DHT22;1616;52.394;9.756;2023-07-13T15:37:29;21.80;1.00
3208;DHT22;1616;52.394;9.756;2023-07-13T15:39:55;21.80;1.00
3208;DHT22;1616;52.394;9.756;2023-07-13T15:42:23;21.70;1.00
3208;DHT22;1616;52.394;9.756;2023-07-13T15:44:49;21.70;1.00
3208;DHT22;1616;52.394;9.756;2023-07-13T15:47:15;21.70;1.00
3208;DHT22;1616;52.394;9.756;2023-07-13T15:49:42;21.80;1.00
3208;DHT22;1616;52.394;9.756;2023-07-13T15:52:22;21.90;1.00
3208;DHT22;1616;52.394;9.756;2023-07-13T15:54:49;22.00;1.00
3208;DHT22;1616;52.394;9.756;2023-07-13T15:57:16;22.10;1.00
3208;DHT22;1616;52.394;9.756;2023-07-13T15:59:42;22.20;1.00
3208;DHT22;1616;52.394;9.756;2023-07-13T16:02:19;22.20;1.00
3208;DHT22;1616;52.394;9.756;2023-07-13T16:04:46;22.20;1.00
3208;DHT22;1616;52.394;9.756;2023-07-13T16:07:14;22.10;1.00
3208;DHT22;1616;52.394;9.756;2023-07-13T16:09:41;22.00;1.00
3208;DHT22;1616;52.394;9.756;2023-07-13T16:12:11;21.90;1.00
3208;DHT22;1616;52.394;9.756;2023-07-13T16:14:38;21.90;1.00
3208;DHT22;1616;52.394;9.756;2023-07-13T16:17:05;21.90;1.00
3208;DHT22;1616;52.394;9.756;2023-07-13T16:19:32;21.90;1.00
3208;DHT22;1616;52.394;9.756;2023-07-13T16:21:59;21.90;1.00
3208;DHT22;1616;52.394;9.756;2023-07-13T16:24:26;21.80;1.00
3208;DHT22;1616;52.394;9.756;2023-07-13T16:26:52;21.60;1.00
3208;DHT22;1616;52.394;9.756;2023-07-13T16:29:25;21.40;1.00
3208;DHT22;1616;52.394;9.756;2023-07-13T16:32:12;21.20;1.00
3208;DHT22;1616;52.394;9.756;2023-07-13T16:34:40;21.10;1.00
3208;DHT22;1616;52.394;9.756;2023-07-13T16:37:27;21.00;1.00
3208;DHT22;1616;52.394;9.756;2023-07-13T16:39:57;20.80;1.00
3208;DHT22;1616;52.394;9.756;2023-07-13T16:42:24;20.70;1.00
3208;DHT22;1616;52.394;9.756;2023-07-13T16:44:50;20.60;1.00
3208;DHT22;1616;52.394;9.756;2023-07-13T16:47:17;20.60;1.00
3208;DHT22;1616;52.394;9.756;2023-07-13T16:49:44;20.50;1.00
3208;DHT22;1616;52.394;9.756;2023-07-13T16:52:13;20.50;1.00
3208;DHT22;1616;52.394;9.756;2023-07-13T16:54:39;20.50;1.00
3208;DHT22;1616;52.394;9.756;2023-07-13T16:57:27;20.60;1.00
3208;DHT22;1616;52.394;9.756;2023-07-13T16:59:54;20.60;1.00
3208;DHT22;1616;52.394;9.756;2023-07-13T17:02:34;20.50;1.00
3208;DHT22;1616;52.394;9.756;2023-07-13T17:05:01;20.50;1.00